TAF Text Data
IDs:
Format:
Raw Decoded Include METAR

Data at: 0256 UTC 29 May 2022

KMKL 282320Z 2900/2924 14003KT P6SM SKC
  FM291600 18007KT P6SM SKC